Hauptseite
METAR-TAF:

METAR-TAF

Flughäfen :

Flughafen Kōbe

Kōbe, Japan

Breite: 34-37-58N, Länge: 135-13-26E, Höhe: 7 m

Beobachtung

Neuester Wetterbericht von vor 42 Minuten, um 13:00 UTC
Wind 13 kt aus Ost/Nordost
Temperatur 18°C
Luftfeuchtigkeit 83%
Luftdruck 1010 hPa
Sichtweite 10 km oder mehr
Leicht bewölkt in der Höhe von 800 ft
Aufgelockert bewölkt in der Höhe von 3000 ft
Durchbrochene Bewölkung in der Höhe von 7000 ft
Regenschauer,

METAR: RJBE 231300Z 06013KT 9999 -SHRA FEW008 SCT030 BKN070 18/15 Q1010

Zeit: 22:42 (13:42 UTC)


TAF: fehlend

Wetterbeobachtungen und Prognosen von mehr als 4000 Flughäfen (METAR und TAF Bericht).

Die verfügbaren Stationen werden durch gelbe und rote Markierungen auf der Karte dargestellt.

Führen Sie die Maus auf sie, um den Namen der Station zu sehen.

Darauf klicken, um die Beobachtung von Wetterbeobachtungen und Prognosen zu sehen.

Um die Karte zu ändern : klicken Sie auf den grünen Tasten mit einem schwarzen Kreuz Zum Vergrößern, auf den grünen Button mit einem Gedankenstrich zu verkleinern, oder auf die grünen Pfeile für benachbarte Karten.


METAR-TAF: